Aérodrome :
LOGIN :

S'inscrire | Disclaimer

   EN    FR    IT 

 










Légende :    VFR   VFR Marginal   IFR   IFR Intensif   IFR Très Intensif
Visi : 
Plafond : 
>= 8 km
>= 3000ft
5 à 8 km
1000 à 3000 ft
1500m à 5 km
500 à 1000 ft
800 à 1500m
200 à 500 ft
< 800m
< 200 ft
Symboles :   Orages  Brouillard  Fortes neiges  Fortes précipitations  Vent > 20 kt
SIGMETs :   Divers  Orages  Givrage  Turbulence  Onde Orograph.  Cendres Volcan.






- Altitude de l'aérodrome : 39 ft
- Code IATA : SUF


LICA - Lamezia Terme

DERNIER METAR :
  • 300720Z AUTO 02004KT 350V070 9999 -RA FEW036/// BKN088/// 14/11 Q1015

METARs EXPIRÉS :
  • 300650Z AUTO 09005KT 060V120 9999 -RA FEW034/// BKN081/// 13/11 Q1015
  • 300620Z AUTO 09007KT 060V120 9999 BKN091/// 12/11 Q1014
  • 300550Z AUTO 13003KT 090V200 9999 BKN096/// 11/10 Q1014
  • 300520Z AUTO 07005KT 340V110 9999 BKN091/// BKN110/// 11/10 Q1014
  • 300450Z AUTO 11003KT 060V140 9999 FEW061/// BKN098/// 11/10 Q1013

TAF TAF LICA
Valide du 30 à 06h jusqu'au 01 à 06h UTC


300500Z 3006/0106 06005KT 9999 SCT030



MET'MAP, la Météo Aéronautique d'un coup d'oeil ! - Copyright ORBIFLY Décembre 2007 - Disclaimer

ORBIFLY MET'MAP TEAM :

Programmation & Développement : Alexandra Zaïnal
Sur une idée originale de : Baudouin d'Aumeries
Assistance à la programmation : Marc-Olivier Méhu
Soutien technique & logistique : Manuel Goepfert

Contact : metmap@orbifly.com




SOURCES & CREDITS :

   NOAA